Time;durP1;ratioP1;P1;durP2;ratioP2;P2;SDS_P1;SDS_P2;PMS_P1;PMS_P2;Temp;Humidity;BMP_temperature;BMP_pressure;BME280_temperature;BME280_humidity;BME280_pressure;Samples;Min_cycle;Max_cycle;Signal;HPM_P1;HPM_P2
2024/02/06 00:00:28;;;;;;;5.83;4.70;;;;;;;;;;5073360;28;20562;-64
2024/02/06 00:02:55;;;;;;;6.20;4.00;;;;;;;;;;5073430;28;20531;-64
2024/02/06 00:05:22;;;;;;;13.57;5.57;;;;;;;;;;5073282;28;20538;-64
2024/02/06 00:07:49;;;;;;;10.40;4.10;;;;;;;;;;5073248;28;20446;-65
2024/02/06 00:10:16;;;;;;;6.90;4.97;;;;;;;;;;5072551;28;20455;-64
2024/02/06 00:12:44;;;;;;;6.27;3.73;;;;;;;;;;5073319;28;20537;-64
2024/02/06 00:15:11;;;;;;;8.43;4.60;;;;;;;;;;5073278;28;20530;-64
2024/02/06 00:17:38;;;;;;;7.80;4.83;;;;;;;;;;5073228;28;20470;-64
2024/02/06 00:20:07;;;;;;;4.70;3.53;;;;;;;;;;5072987;28;20532;-64
2024/02/06 00:22:34;;;;;;;4.07;3.23;;;;;;;;;;5073334;28;20459;-64
2024/02/06 00:25:01;;;;;;;9.67;4.40;;;;;;;;;;5073067;28;20534;-66
2024/02/06 00:27:28;;;;;;;7.97;3.97;;;;;;;;;;5073149;28;20539;-65
2024/02/06 00:29:57;;;;;;;8.00;5.00;;;;;;;;;;5073133;28;20447;-64
2024/02/06 00:32:24;;;;;;;5.67;3.43;;;;;;;;;;5073032;28;20449;-65
2024/02/06 00:34:52;;;;;;;4.00;3.70;;;;;;;;;;5073232;28;20446;-65
2024/02/06 00:37:19;;;;;;;4.97;3.77;;;;;;;;;;5073128;28;20439;-65
2024/02/06 00:39:46;;;;;;;5.40;3.67;;;;;;;;;;5073022;28;20542;-64
2024/02/06 00:42:13;;;;;;;6.17;4.57;;;;;;;;;;5072910;28;20986;-65
2024/02/06 00:44:40;;;;;;;13.03;4.90;;;;;;;;;;5072889;28;20479;-64
2024/02/06 00:47:09;;;;;;;4.73;4.20;;;;;;;;;;5072743;28;20443;-65
2024/02/06 00:49:37;;;;;;;7.40;4.20;;;;;;;;;;5072759;28;20475;-64
2024/02/06 00:52:04;;;;;;;4.50;4.20;;;;;;;;;;5072961;28;20542;-65
2024/02/06 00:54:31;;;;;;;4.33;4.00;;;;;;;;;;5072890;28;20577;-64
2024/02/06 00:56:58;;;;;;;4.60;3.47;;;;;;;;;;5072850;28;20535;-64
2024/02/06 00:59:25;;;;;;;3.43;3.13;;;;;;;;;;5072750;28;20526;-64
2024/02/06 01:01:52;;;;;;;3.50;3.17;;;;;;;;;;5072572;28;20483;-64
2024/02/06 01:04:21;;;;;;;4.20;3.77;;;;;;;;;;5072813;28;20444;-64
2024/02/06 01:06:48;;;;;;;5.20;3.97;;;;;;;;;;5072795;28;20854;-65
2024/02/06 01:09:15;;;;;;;5.20;3.37;;;;;;;;;;5072680;28;20538;-64
2024/02/06 01:11:42;;;;;;;4.70;3.27;;;;;;;;;;5072672;28;20447;-65
2024/02/06 01:14:09;;;;;;;6.27;3.30;;;;;;;;;;5072524;28;20546;-65
2024/02/06 01:16:37;;;;;;;5.20;4.00;;;;;;;;;;5072764;28;20538;-65
2024/02/06 01:19:03;;;;;;;5.73;3.63;;;;;;;;;;5072643;28;20526;-65
2024/02/06 01:21:32;;;;;;;8.43;3.00;;;;;;;;;;5075149;28;20486;-64
2024/02/06 01:23:59;;;;;;;5.50;3.77;;;;;;;;;;5076404;28;20867;-64
2024/02/06 01:26:26;;;;;;;7.10;3.10;;;;;;;;;;5076095;28;21080;-64
2024/02/06 01:28:53;;;;;;;5.70;3.10;;;;;;;;;;5076170;28;20443;-65
2024/02/06 01:31:19;;;;;;;4.00;3.60;;;;;;;;;;5076230;28;20943;-64
2024/02/06 01:33:46;;;;;;;6.00;2.90;;;;;;;;;;5076379;28;20447;-64
2024/02/06 01:36:13;;;;;;;5.50;2.97;;;;;;;;;;5076160;28;20483;-64
2024/02/06 01:38:42;;;;;;;4.10;3.43;;;;;;;;;;5076192;28;20447;-64
2024/02/06 01:41:09;;;;;;;3.80;3.43;;;;;;;;;;5076004;28;20467;-64
2024/02/06 01:43:35;;;;;;;4.50;3.13;;;;;;;;;;5075988;28;20533;-65
2024/02/06 01:46:02;;;;;;;4.37;3.50;;;;;;;;;;5076179;28;20530;-65
2024/02/06 01:48:30;;;;;;;5.43;3.80;;;;;;;;;;5075854;28;21033;-64
2024/02/06 01:50:56;;;;;;;5.43;3.10;;;;;;;;;;5075975;28;20449;-65
2024/02/06 01:53:25;;;;;;;4.90;3.53;;;;;;;;;;5075873;28;20451;-65
2024/02/06 01:55:53;;;;;;;4.60;3.37;;;;;;;;;;5075762;28;20546;-65
2024/02/06 01:58:20;;;;;;;7.90;3.70;;;;;;;;;;5075948;28;20443;-65
2024/02/06 02:00:48;;;;;;;4.40;3.97;;;;;;;;;;5075755;28;20807;-64
2024/02/06 02:03:15;;;;;;;7.87;3.70;;;;;;;;;;5075758;28;20538;-64
2024/02/06 02:05:44;;;;;;;5.33;3.90;;;;;;;;;;5075692;28;20531;-65
2024/02/06 02:08:11;;;;;;;4.00;3.70;;;;;;;;;;5075597;28;20500;-64
2024/02/06 02:10:38;;;;;;;4.63;3.70;;;;;;;;;;5075956;28;20554;-64
2024/02/06 02:13:07;;;;;;;7.03;4.50;;;;;;;;;;5075615;28;20882;-65
2024/02/06 02:15:34;;;;;;;4.20;3.80;;;;;;;;;;5075420;28;20447;-64
2024/02/06 02:18:01;;;;;;;5.10;4.40;;;;;;;;;;5075437;28;20444;-64
2024/02/06 02:20:28;;;;;;;5.13;3.03;;;;;;;;;;5075395;28;20539;-64
2024/02/06 02:22:56;;;;;;;4.40;3.30;;;;;;;;;;5075160;28;20562;-64
2024/02/06 02:25:24;;;;;;;4.40;4.00;;;;;;;;;;5075315;28;20471;-65
2024/02/06 02:27:51;;;;;;;6.73;4.10;;;;;;;;;;5075362;28;20453;-65
2024/02/06 02:30:18;;;;;;;4.13;3.53;;;;;;;;;;5075283;28;20542;-65
2024/02/06 02:32:46;;;;;;;4.03;3.73;;;;;;;;;;5074495;28;20447;-64
2024/02/06 02:35:14;;;;;;;4.20;3.73;;;;;;;;;;5075123;28;20541;-64
2024/02/06 02:37:41;;;;;;;6.83;3.90;;;;;;;;;;5075061;28;20919;-64
2024/02/06 02:40:10;;;;;;;9.87;3.70;;;;;;;;;;5075188;28;20884;-64
2024/02/06 02:42:37;;;;;;;7.00;3.30;;;;;;;;;;5075030;28;20529;-64
2024/02/06 02:45:04;;;;;;;3.60;3.10;;;;;;;;;;5075030;28;20450;-64
2024/02/06 02:47:32;;;;;;;5.20;3.83;;;;;;;;;;5074921;28;20471;-64
2024/02/06 02:49:59;;;;;;;4.53;3.20;;;;;;;;;;5074818;28;20513;-64
2024/02/06 02:52:26;;;;;;;4.53;3.37;;;;;;;;;;5074959;28;20440;-64
2024/02/06 02:54:53;;;;;;;4.33;3.47;;;;;;;;;;5074858;28;20475;-64
2024/02/06 02:57:21;;;;;;;4.47;3.53;;;;;;;;;;5074791;28;20443;-64
2024/02/06 02:59:48;;;;;;;3.20;2.90;;;;;;;;;;5074711;28;20479;-64
2024/02/06 03:02:15;;;;;;;6.40;3.23;;;;;;;;;;5074484;28;20524;-65
2024/02/06 03:04:42;;;;;;;4.93;2.73;;;;;;;;;;5074473;28;20844;-64
2024/02/06 03:07:09;;;;;;;3.47;2.83;;;;;;;;;;5074568;28;20526;-65
2024/02/06 03:09:36;;;;;;;4.20;2.90;;;;;;;;;;5074442;28;20535;-64
2024/02/06 03:12:03;;;;;;;4.80;3.40;;;;;;;;;;5074426;28;20439;-64
2024/02/06 03:14:31;;;;;;;4.27;3.70;;;;;;;;;;5074297;28;20526;-64
2024/02/06 03:16:58;;;;;;;4.07;3.40;;;;;;;;;;5074167;28;20440;-65
2024/02/06 03:19:25;;;;;;;3.03;2.70;;;;;;;;;;5074140;28;20452;-64
2024/02/06 03:21:52;;;;;;;5.30;3.30;;;;;;;;;;5074156;28;20475;-64
2024/02/06 03:24:22;;;;;;;3.97;3.00;;;;;;;;;;5074030;28;20994;-65
2024/02/06 03:26:49;;;;;;;8.70;2.97;;;;;;;;;;5073985;28;20499;-64
2024/02/06 03:29:16;;;;;;;3.70;3.40;;;;;;;;;;5073926;28;21029;-64
2024/02/06 03:31:44;;;;;;;3.70;2.97;;;;;;;;;;5073842;28;20477;-65
2024/02/06 03:34:11;;;;;;;4.80;3.20;;;;;;;;;;5074096;28;20448;-64
2024/02/06 03:36:42;;;;;;;3.90;3.30;;;;;;;;;;5074055;28;20443;-64
2024/02/06 03:39:11;;;;;;;4.30;2.93;;;;;;;;;;5073783;28;20961;-64
2024/02/06 03:41:38;;;;;;;5.77;3.00;;;;;;;;;;5073737;28;20471;-64
2024/02/06 03:44:05;;;;;;;3.20;2.80;;;;;;;;;;5072742;28;20838;-65
2024/02/06 03:46:32;;;;;;;5.27;2.73;;;;;;;;;;5073976;28;20849;-65
2024/02/06 03:49:00;;;;;;;3.83;2.90;;;;;;;;;;5073766;28;20454;-65
2024/02/06 03:51:27;;;;;;;3.27;2.60;;;;;;;;;;5073692;28;20605;-64
2024/02/06 03:53:54;;;;;;;3.00;2.77;;;;;;;;;;5073560;28;20476;-64
2024/02/06 03:56:21;;;;;;;4.10;2.30;;;;;;;;;;5073392;28;20443;-64
2024/02/06 03:58:48;;;;;;;3.33;2.50;;;;;;;;;;5073357;28;20522;-64
2024/02/06 04:01:14;;;;;;;2.40;2.20;;;;;;;;;;5073502;28;20530;-64
2024/02/06 04:03:41;;;;;;;4.07;2.70;;;;;;;;;;5073608;28;20505;-65
2024/02/06 04:06:12;;;;;;;7.40;2.30;;;;;;;;;;5073450;28;20853;-64
2024/02/06 04:08:39;;;;;;;3.00;2.17;;;;;;;;;;5073335;28;20474;-64
2024/02/06 04:11:07;;;;;;;2.70;2.50;;;;;;;;;;5073286;28;20721;-64
2024/02/06 04:13:33;;;;;;;3.73;1.97;;;;;;;;;;5073148;28;20966;-64
2024/02/06 04:16:00;;;;;;;2.90;1.93;;;;;;;;;;5073371;28;20803;-65
2024/02/06 04:18:28;;;;;;;3.10;1.80;;;;;;;;;;5073223;28;20440;-65
2024/02/06 04:20:55;;;;;;;1.80;1.70;;;;;;;;;;5073240;28;20454;-64
2024/02/06 04:23:23;;;;;;;3.23;1.93;;;;;;;;;;5073042;28;20479;-64
2024/02/06 04:25:50;;;;;;;3.93;1.67;;;;;;;;;;5072829;28;20471;-65
2024/02/06 04:28:17;;;;;;;3.20;2.20;;;;;;;;;;5073232;28;20450;-64
2024/02/06 04:30:44;;;;;;;2.50;2.10;;;;;;;;;;5073150;28;20780;-64
2024/02/06 04:33:11;;;;;;;5.00;1.50;;;;;;;;;;5072864;28;20947;-64
2024/02/06 04:35:38;;;;;;;2.90;2.20;;;;;;;;;;5072971;28;20535;-64
2024/02/06 04:38:05;;;;;;;2.97;2.10;;;;;;;;;;5073118;28;20543;-64
2024/02/06 04:40:34;;;;;;;4.23;1.87;;;;;;;;;;5072949;28;20448;-64
2024/02/06 04:43:01;;;;;;;1.70;1.60;;;;;;;;;;5072780;28;20479;-65
2024/02/06 04:45:27;;;;;;;1.97;1.50;;;;;;;;;;5073096;28;20482;-65
2024/02/06 04:47:54;;;;;;;4.17;1.57;;;;;;;;;;5072928;28;20443;-64
2024/02/06 04:50:21;;;;;;;1.93;1.53;;;;;;;;;;5072812;28;20444;-64
2024/02/06 04:52:49;;;;;;;3.70;1.57;;;;;;;;;;5072714;28;20535;-65
2024/02/06 04:55:16;;;;;;;2.37;1.60;;;;;;;;;;5073461;28;21020;-64
2024/02/06 04:57:44;;;;;;;2.30;2.10;;;;;;;;;;5077065;28;20454;-64
2024/02/06 05:00:13;;;;;;;3.30;2.00;;;;;;;;;;5076884;28;20526;-64
2024/02/06 05:02:40;;;;;;;4.13;2.10;;;;;;;;;;5076795;28;20532;-64
2024/02/06 05:05:07;;;;;;;3.40;2.23;;;;;;;;;;5076803;28;20534;-64
2024/02/06 05:07:34;;;;;;;1.60;1.50;;;;;;;;;;5076701;28;20542;-64
2024/02/06 05:10:01;;;;;;;1.70;1.50;;;;;;;;;;5076620;28;20935;-65
2024/02/06 05:12:28;;;;;;;1.80;1.70;;;;;;;;;;5076493;28;20541;-64
2024/02/06 05:14:56;;;;;;;2.80;2.00;;;;;;;;;;5076683;28;20533;-64
2024/02/06 05:17:25;;;;;;;2.90;1.87;;;;;;;;;;5076593;28;20526;-64
2024/02/06 05:19:52;;;;;;;3.43;2.53;;;;;;;;;;5076351;28;20443;-65
2024/02/06 05:22:19;;;;;;;3.37;2.07;;;;;;;;;;5076324;28;20558;-64
2024/02/06 05:24:46;;;;;;;4.43;2.30;;;;;;;;;;5076536;28;20889;-64
2024/02/06 05:27:14;;;;;;;2.00;1.90;;;;;;;;;;5076183;28;20479;-64
2024/02/06 05:29:41;;;;;;;2.30;2.00;;;;;;;;;;5076356;28;20470;-64
2024/02/06 05:32:09;;;;;;;4.23;2.27;;;;;;;;;;5076326;28;20850;-64
2024/02/06 05:34:36;;;;;;;2.53;2.33;;;;;;;;;;5076081;28;20474;-64
2024/02/06 05:37:04;;;;;;;3.10;1.90;;;;;;;;;;5076176;28;21021;-65
2024/02/06 05:39:31;;;;;;;4.03;2.53;;;;;;;;;;5076246;28;20768;-64
2024/02/06 05:41:58;;;;;;;3.23;1.93;;;;;;;;;;5076061;28;20530;-65
2024/02/06 05:44:25;;;;;;;2.40;2.20;;;;;;;;;;5076098;28;20447;-64
2024/02/06 05:46:52;;;;;;;3.13;2.00;;;;;;;;;;5075919;28;20534;-64
2024/02/06 05:49:20;;;;;;;4.03;2.13;;;;;;;;;;5075830;28;20447;-64
2024/02/06 05:51:47;;;;;;;2.80;2.17;;;;;;;;;;5076035;28;20542;-65
2024/02/06 05:54:14;;;;;;;3.30;2.50;;;;;;;;;;5076124;28;20494;-64
2024/02/06 05:56:41;;;;;;;3.30;2.30;;;;;;;;;;5075884;28;20450;-64
2024/02/06 05:59:08;;;;;;;3.13;1.90;;;;;;;;;;5075834;28;20447;-64
2024/02/06 06:01:35;;;;;;;4.73;2.67;;;;;;;;;;5075682;28;20447;-64
2024/02/06 06:04:02;;;;;;;1.90;1.80;;;;;;;;;;5075474;28;21069;-65
2024/02/06 06:06:30;;;;;;;4.30;2.27;;;;;;;;;;5075181;28;20455;-64
2024/02/06 06:08:57;;;;;;;4.07;3.23;;;;;;;;;;5075056;28;20534;-64
2024/02/06 06:11:24;;;;;;;3.60;2.37;;;;;;;;;;5075521;28;20443;-64
2024/02/06 06:13:51;;;;;;;2.87;2.63;;;;;;;;;;5075478;28;20447;-64
2024/02/06 06:16:18;;;;;;;3.63;2.30;;;;;;;;;;5075353;28;20450;-64
2024/02/06 06:18:45;;;;;;;2.77;2.37;;;;;;;;;;5075542;28;20539;-65
2024/02/06 06:21:11;;;;;;;5.53;2.27;;;;;;;;;;5075448;28;20531;-65
2024/02/06 06:23:40;;;;;;;3.93;1.93;;;;;;;;;;5075301;28;20505;-64
2024/02/06 06:26:07;;;;;;;4.20;2.10;;;;;;;;;;5075098;28;20471;-65
2024/02/06 06:28:34;;;;;;;7.10;3.17;;;;;;;;;;5075154;28;20448;-64
2024/02/06 06:31:01;;;;;;;2.97;2.30;;;;;;;;;;5075070;28;20475;-65
2024/02/06 06:33:28;;;;;;;2.23;2.13;;;;;;;;;;5075318;28;20440;-64
2024/02/06 06:35:55;;;;;;;2.17;2.03;;;;;;;;;;5075203;28;20439;-65
2024/02/06 06:38:22;;;;;;;2.00;1.83;;;;;;;;;;5075106;28;21030;-65
2024/02/06 06:40:50;;;;;;;1.80;1.70;;;;;;;;;;5074954;28;20527;-65
2024/02/06 06:43:17;;;;;;;4.40;2.40;;;;;;;;;;5074866;28;20896;-65
2024/02/06 06:45:44;;;;;;;2.60;2.10;;;;;;;;;;5075328;28;20885;-64
2024/02/06 06:48:11;;;;;;;3.83;2.47;;;;;;;;;;5074933;28;20447;-65
2024/02/06 06:50:38;;;;;;;4.20;2.23;;;;;;;;;;5074923;28;20490;-65
2024/02/06 06:53:06;;;;;;;3.00;2.50;;;;;;;;;;5074749;28;20535;-65
2024/02/06 06:55:33;;;;;;;2.67;2.20;;;;;;;;;;5074715;28;20530;-64
2024/02/06 06:58:01;;;;;;;2.20;2.10;;;;;;;;;;5074437;28;20550;-64
2024/02/06 07:00:29;;;;;;;8.00;2.30;;;;;;;;;;5074676;28;20534;-65
2024/02/06 07:02:56;;;;;;;2.47;2.23;;;;;;;;;;5074486;28;20961;-65
2024/02/06 07:05:23;;;;;;;2.30;2.10;;;;;;;;;;5074508;28;20530;-65
2024/02/06 07:07:50;;;;;;;4.07;2.00;;;;;;;;;;5074265;28;20448;-65
2024/02/06 07:10:17;;;;;;;3.77;2.37;;;;;;;;;;5074268;28;20526;-65
2024/02/06 07:12:44;;;;;;;3.37;2.17;;;;;;;;;;5074475;28;20551;-65
2024/02/06 07:15:13;;;;;;;3.80;2.13;;;;;;;;;;5074449;28;20447;-65
2024/02/06 07:17:41;;;;;;;2.70;2.47;;;;;;;;;;5074322;28;20452;-65
2024/02/06 07:20:08;;;;;;;3.97;2.40;;;;;;;;;;5073894;28;21014;-65
2024/02/06 07:22:35;;;;;;;1.67;1.57;;;;;;;;;;5074117;28;20471;-65
2024/02/06 07:25:03;;;;;;;2.20;2.00;;;;;;;;;;5073829;28;20469;-65
2024/02/06 07:27:32;;;;;;;4.20;2.37;;;;;;;;;;5073941;28;20938;-65
2024/02/06 07:30:00;;;;;;;2.90;2.17;;;;;;;;;;5074136;28;20505;-65
2024/02/06 07:32:28;;;;;;;2.93;2.37;;;;;;;;;;5074023;28;20486;-65
2024/02/06 07:34:55;;;;;;;8.60;2.07;;;;;;;;;;5073956;28;20447;-65
2024/02/06 07:37:22;;;;;;;2.43;1.97;;;;;;;;;;5073791;28;20520;-64
2024/02/06 07:39:49;;;;;;;2.17;2.00;;;;;;;;;;5071943;28;20550;-64
2024/02/06 07:42:16;;;;;;;2.53;1.57;;;;;;;;;;5073768;28;20534;-65
2024/02/06 07:44:43;;;;;;;2.10;2.00;;;;;;;;;;5073660;28;20906;-64
2024/02/06 07:47:10;;;;;;;2.40;1.60;;;;;;;;;;5073661;28;20534;-65
2024/02/06 07:49:38;;;;;;;2.73;2.20;;;;;;;;;;5073458;28;20534;-65
2024/02/06 07:52:06;;;;;;;1.90;1.80;;;;;;;;;;5073432;28;20864;-65
2024/02/06 07:54:33;;;;;;;1.80;1.70;;;;;;;;;;5073289;28;20454;-66
2024/02/06 07:57:00;;;;;;;2.53;2.33;;;;;;;;;;5073249;28;20452;-66
2024/02/06 07:59:27;;;;;;;2.57;1.73;;;;;;;;;;5073305;28;20448;-65
2024/02/06 08:01:54;;;;;;;2.73;2.03;;;;;;;;;;5060539;28;20535;-65
2024/02/06 08:04:21;;;;;;;2.67;1.80;;;;;;;;;;5051404;28;20486;-65
2024/02/06 08:06:49;;;;;;;3.20;1.90;;;;;;;;;;5052297;28;20879;-65
2024/02/06 08:09:18;;;;;;;7.83;3.33;;;;;;;;;;5053298;28;20535;-65
2024/02/06 08:11:45;;;;;;;2.37;1.50;;;;;;;;;;5051986;28;20857;-65
2024/02/06 08:14:13;;;;;;;2.60;1.53;;;;;;;;;;5053191;28;20548;-64
2024/02/06 08:16:40;;;;;;;2.10;1.90;;;;;;;;;;5053125;28;20451;-65
2024/02/06 08:19:08;;;;;;;1.80;1.40;;;;;;;;;;5052981;28;20527;-65
2024/02/06 08:21:35;;;;;;;2.30;1.43;;;;;;;;;;5053223;28;20440;-65
2024/02/06 08:24:04;;;;;;;1.30;1.20;;;;;;;;;;5053038;28;20832;-65
2024/02/06 08:26:31;;;;;;;4.83;2.43;;;;;;;;;;5052807;28;20476;-65
2024/02/06 08:28:58;;;;;;;2.50;1.60;;;;;;;;;;5052830;28;20539;-65
2024/02/06 08:31:25;;;;;;;3.07;1.27;;;;;;;;;;5052266;28;20559;-65
2024/02/06 08:33:52;;;;;;;2.37;2.00;;;;;;;;;;5052715;28;20452;-65
2024/02/06 08:36:19;;;;;;;2.63;2.53;;;;;;;;;;5053075;28;20480;-65
2024/02/06 08:38:46;;;;;;;1.90;1.70;;;;;;;;;;5053027;28;20876;-65
2024/02/06 08:41:14;;;;;;;1.63;1.53;;;;;;;;;;5052825;28;20445;-65
2024/02/06 08:43:41;;;;;;;4.40;1.80;;;;;;;;;;5052649;28;20482;-65
2024/02/06 08:46:08;;;;;;;2.33;1.57;;;;;;;;;;5052643;28;20527;-65
2024/02/06 08:48:35;;;;;;;2.43;2.23;;;;;;;;;;5052768;28;20444;-65
2024/02/06 08:51:02;;;;;;;1.50;1.40;;;;;;;;;;5052754;28;20535;-64
2024/02/06 08:53:30;;;;;;;2.30;1.50;;;;;;;;;;5052445;28;20939;-65
2024/02/06 08:55:59;;;;;;;6.27;2.13;;;;;;;;;;5052364;28;20535;-65
2024/02/06 08:58:27;;;;;;;1.97;1.30;;;;;;;;;;5052676;28;20797;-65
2024/02/06 09:00:54;;;;;;;1.57;1.37;;;;;;;;;;5052452;28;20448;-65
2024/02/06 09:03:21;;;;;;;1.87;1.77;;;;;;;;;;5052421;28;20472;-65
2024/02/06 09:05:48;;;;;;;2.33;2.07;;;;;;;;;;5052607;28;20540;-66
2024/02/06 09:08:15;;;;;;;1.70;1.43;;;;;;;;;;5052374;28;20494;-65
2024/02/06 09:10:42;;;;;;;2.53;1.70;;;;;;;;;;5059370;28;20497;-65
2024/02/06 09:13:09;;;;;;;2.40;1.53;;;;;;;;;;5072297;28;20454;-65
2024/02/06 09:15:37;;;;;;;5.03;2.13;;;;;;;;;;5072357;28;20443;-66
2024/02/06 09:18:05;;;;;;;4.50;1.80;;;;;;;;;;5072318;28;20443;-71
2024/02/06 09:20:31;;;;;;;2.43;1.37;;;;;;;;;;5072401;28;20614;-64
2024/02/06 09:22:58;;;;;;;2.80;1.67;;;;;;;;;;5072387;28;20469;-64
2024/02/06 09:25:25;;;;;;;1.60;1.50;;;;;;;;;;5072160;28;21009;-68
2024/02/06 09:27:52;;;;;;;1.50;1.40;;;;;;;;;;5071970;28;20935;-67
2024/02/06 09:30:20;;;;;;;3.60;1.40;;;;;;;;;;5072317;28;20446;-66
2024/02/06 09:32:49;;;;;;;2.13;1.67;;;;;;;;;;5072453;28;20450;-64
2024/02/06 09:35:16;;;;;;;5.07;2.10;;;;;;;;;;5072348;28;20447;-62
2024/02/06 09:37:43;;;;;;;3.90;1.70;;;;;;;;;;5072367;28;20917;-68
2024/02/06 09:40:10;;;;;;;2.57;1.03;;;;;;;;;;5072159;28;20951;-66
2024/02/06 09:42:38;;;;;;;2.50;1.20;;;;;;;;;;5074703;28;20522;-67
2024/02/06 09:45:06;;;;;;;2.43;1.40;;;;;;;;;;5075626;28;20481;-67
2024/02/06 09:47:33;;;;;;;1.33;1.23;;;;;;;;;;5075961;28;20447;-65
2024/02/06 09:50:03;;;;;;;2.03;1.40;;;;;;;;;;5075944;28;20447;-64
2024/02/06 09:52:31;;;;;;;2.43;1.87;;;;;;;;;;5075801;28;20505;-64
2024/02/06 09:55:01;;;;;;;4.57;1.47;;;;;;;;;;5075687;28;20455;-66
2024/02/06 09:57:29;;;;;;;2.43;1.20;;;;;;;;;;5075787;28;20466;-68
2024/02/06 09:59:57;;;;;;;2.80;1.60;;;;;;;;;;5075807;28;20538;-66
2024/02/06 10:02:25;;;;;;;2.10;1.33;;;;;;;;;;5075603;28;20538;-61
2024/02/06 10:04:54;;;;;;;1.20;1.10;;;;;;;;;;5075288;28;20483;-62
2024/02/06 10:07:23;;;;;;;1.97;1.67;;;;;;;;;;5075196;28;20443;-63
2024/02/06 10:09:51;;;;;;;4.10;1.20;;;;;;;;;;5075324;28;20451;-67
2024/02/06 10:12:18;;;;;;;3.30;1.40;;;;;;;;;;5075526;28;20447;-65
2024/02/06 10:14:45;;;;;;;2.07;1.60;;;;;;;;;;5075305;28;20450;-66
2024/02/06 10:17:14;;;;;;;2.23;1.60;;;;;;;;;;5075249;28;20881;-64
2024/02/06 10:19:41;;;;;;;1.30;1.13;;;;;;;;;;5075309;28;20450;-64
2024/02/06 10:22:12;;;;;;;1.97;1.80;;;;;;;;;;5075102;28;20497;-65
2024/02/06 10:24:40;;;;;;;1.20;1.00;;;;;;;;;;5075256;28;20487;-65
2024/02/06 10:27:07;;;;;;;1.80;1.20;;;;;;;;;;5074748;28;20569;-67
2024/02/06 10:29:34;;;;;;;3.10;1.20;;;;;;;;;;5075125;28;20874;-66
2024/02/06 10:32:01;;;;;;;3.60;1.10;;;;;;;;;;5074708;28;21002;-67
2024/02/06 10:34:28;;;;;;;2.97;1.47;;;;;;;;;;5074765;28;20534;-67
2024/02/06 10:36:59;;;;;;;2.60;1.40;;;;;;;;;;5075084;28;20505;-63
2024/02/06 10:39:28;;;;;;;5.30;1.53;;;;;;;;;;5074681;28;20951;-65
2024/02/06 10:42:00;;;;;;;2.40;1.30;;;;;;;;;;5074652;28;20448;-64
2024/02/06 10:44:28;;;;;;;1.70;1.00;;;;;;;;;;5074351;28;20482;-66
2024/02/06 10:46:58;;;;;;;2.47;1.10;;;;;;;;;;5074656;28;20780;-66
2024/02/06 10:49:25;;;;;;;1.77;1.17;;;;;;;;;;5074777;28;20531;-61
2024/02/06 10:51:52;;;;;;;2.57;1.43;;;;;;;;;;5074753;28;20534;-68
2024/02/06 10:54:20;;;;;;;1.77;1.20;;;;;;;;;;5074083;28;20538;-64
2024/02/06 10:56:52;;;;;;;1.73;1.07;;;;;;;;;;5074581;28;20534;-66
2024/02/06 10:59:23;;;;;;;2.17;1.10;;;;;;;;;;5074427;28;20538;-67
2024/02/06 11:01:50;;;;;;;1.73;1.10;;;;;;;;;;5074347;28;20462;-66
2024/02/06 11:04:19;;;;;;;2.37;1.20;;;;;;;;;;5074244;28;20573;-63
2024/02/06 11:06:51;;;;;;;1.20;1.00;;;;;;;;;;5074057;28;20538;-64
2024/02/06 11:09:20;;;;;;;1.43;1.20;;;;;;;;;;5074270;28;20443;-66
2024/02/06 11:11:47;;;;;;;2.93;1.23;;;;;;;;;;5074092;28;20451;-66
2024/02/06 11:14:16;;;;;;;1.97;1.63;;;;;;;;;;5074007;28;20534;-63
2024/02/06 11:16:46;;;;;;;2.90;1.17;;;;;;;;;;5074197;28;20448;-63
2024/02/06 11:19:18;;;;;;;5.00;1.37;;;;;;;;;;5074264;28;20799;-64
2024/02/06 11:21:46;;;;;;;5.57;1.10;;;;;;;;;;5074192;28;20459;-64
2024/02/06 11:24:13;;;;;;;3.43;1.30;;;;;;;;;;5073901;28;20479;-68
2024/02/06 11:26:41;;;;;;;1.97;1.20;;;;;;;;;;5073656;28;20471;-69
2024/02/06 11:29:08;;;;;;;1.33;1.23;;;;;;;;;;5073972;28;20874;-67
2024/02/06 11:31:36;;;;;;;2.53;1.70;;;;;;;;;;5073805;28;20443;-66
2024/02/06 11:34:14;;;;;;;2.43;1.80;;;;;;;;;;5073630;28;20470;-66
2024/02/06 11:36:42;;;;;;;1.53;1.20;;;;;;;;;;5074157;28;20934;-66
2024/02/06 11:39:09;;;;;;;3.17;1.93;;;;;;;;;;5073611;28;20530;-65
2024/02/06 11:41:36;;;;;;;3.60;1.30;;;;;;;;;;5073687;28;20483;-67
2024/02/06 11:44:10;;;;;;;2.80;1.37;;;;;;;;;;5073636;28;20553;-67
2024/02/06 11:46:44;;;;;;;1.67;1.57;;;;;;;;;;5073397;28;20483;-68
2024/02/06 11:49:11;;;;;;;1.47;1.37;;;;;;;;;;5073407;28;20450;-67
2024/02/06 11:51:39;;;;;;;1.90;1.33;;;;;;;;;;5073403;28;20443;-67
2024/02/06 11:54:13;;;;;;;6.03;1.40;;;;;;;;;;5073597;28;20451;-67
2024/02/06 11:56:41;;;;;;;3.73;1.47;;;;;;;;;;5073581;28;20523;-67
2024/02/06 11:59:08;;;;;;;2.80;1.30;;;;;;;;;;5073054;28;20473;-67
2024/02/06 12:01:35;;;;;;;1.63;1.47;;;;;;;;;;5073226;28;20447;-67
2024/02/06 12:04:04;;;;;;;3.50;1.43;;;;;;;;;;5073079;28;20475;-67
2024/02/06 12:06:31;;;;;;;3.00;1.40;;;;;;;;;;5072752;28;20517;-67
2024/02/06 12:09:03;;;;;;;3.47;1.60;;;;;;;;;;5073392;28;20534;-67
2024/02/06 12:11:31;;;;;;;3.30;1.40;;;;;;;;;;5073307;28;20849;-67
2024/02/06 12:13:58;;;;;;;2.27;1.60;;;;;;;;;;5073245;28;20808;-68
2024/02/06 12:16:25;;;;;;;3.17;1.70;;;;;;;;;;5073165;28;20554;-68
2024/02/06 12:18:52;;;;;;;2.13;1.70;;;;;;;;;;5072759;28;20581;-67
2024/02/06 12:21:23;;;;;;;3.83;1.47;;;;;;;;;;5073148;28;20872;-66
2024/02/06 12:23:50;;;;;;;2.50;2.13;;;;;;;;;;5073044;28;20444;-68
2024/02/06 12:26:24;;;;;;;3.30;1.57;;;;;;;;;;5072763;28;21048;-69
2024/02/06 12:29:01;;;;;;;1.20;1.10;;;;;;;;;;5072833;28;20534;-68
2024/02/06 12:31:28;;;;;;;2.23;1.40;;;;;;;;;;5072868;28;20455;-68
2024/02/06 12:33:55;;;;;;;2.07;1.20;;;;;;;;;;5073103;28;20448;-68
2024/02/06 12:36:22;;;;;;;6.23;1.73;;;;;;;;;;5072939;28;20534;-67
2024/02/06 12:38:51;;;;;;;4.23;1.70;;;;;;;;;;5072819;28;20998;-66
2024/02/06 12:41:18;;;;;;;4.27;1.67;;;;;;;;;;5072718;28;20537;-66
2024/02/06 12:43:47;;;;;;;1.87;1.53;;;;;;;;;;5072807;28;20493;-65
2024/02/06 12:46:14;;;;;;;1.13;1.03;;;;;;;;;;5072747;28;20482;-66
2024/02/06 12:48:41;;;;;;;4.10;1.60;;;;;;;;;;5072881;28;20539;-66
2024/02/06 12:51:08;;;;;;;3.47;1.80;;;;;;;;;;5072869;28;20443;-66
2024/02/06 12:53:36;;;;;;;1.53;1.20;;;;;;;;;;5072738;28;20558;-67
2024/02/06 12:56:03;;;;;;;1.97;1.40;;;;;;;;;;5072723;28;20802;-65
2024/02/06 12:58:32;;;;;;;2.10;1.30;;;;;;;;;;5072619;28;20863;-65
2024/02/06 13:01:01;;;;;;;1.30;1.20;;;;;;;;;;5072889;28;20569;-66
2024/02/06 13:03:28;;;;;;;1.70;1.60;;;;;;;;;;5072794;28;20443;-67
2024/02/06 13:05:55;;;;;;;2.53;1.27;;;;;;;;;;5072607;28;20483;-67
2024/02/06 13:08:23;;;;;;;4.40;1.40;;;;;;;;;;5072731;28;20443;-66
2024/02/06 13:10:50;;;;;;;3.33;1.30;;;;;;;;;;5072468;28;20534;-67
2024/02/06 13:13:18;;;;;;;3.40;1.20;;;;;;;;;;5072760;28;20493;-67
2024/02/06 13:15:45;;;;;;;1.83;1.33;;;;;;;;;;5072637;28;20443;-67
2024/02/06 13:18:16;;;;;;;2.60;1.67;;;;;;;;;;5076494;28;20478;-67
2024/02/06 13:20:43;;;;;;;3.93;1.83;;;;;;;;;;5076541;28;20538;-66
2024/02/06 13:23:10;;;;;;;3.13;1.53;;;;;;;;;;5076343;28;20565;-67
2024/02/06 13:25:38;;;;;;;1.40;1.10;;;;;;;;;;5076171;28;20497;-66
2024/02/06 13:28:05;;;;;;;1.73;1.50;;;;;;;;;;5076385;28;20443;-66
2024/02/06 13:30:32;;;;;;;1.40;1.13;;;;;;;;;;5076227;28;20522;-66
2024/02/06 13:32:59;;;;;;;2.70;1.10;;;;;;;;;;5076211;28;20540;-66
2024/02/06 13:35:27;;;;;;;1.60;1.47;;;;;;;;;;5076224;28;20892;-66
2024/02/06 13:37:54;;;;;;;2.47;1.70;;;;;;;;;;5075950;28;20446;-66
2024/02/06 13:40:21;;;;;;;1.73;1.63;;;;;;;;;;5076223;28;20439;-66
2024/02/06 13:42:48;;;;;;;4.00;3.60;;;;;;;;;;5076009;28;20448;-66
2024/02/06 13:45:15;;;;;;;2.20;1.70;;;;;;;;;;5075960;28;20808;-66
2024/02/06 13:47:42;;;;;;;2.50;1.37;;;;;;;;;;5075925;28;20447;-66
2024/02/06 13:50:09;;;;;;;4.37;1.70;;;;;;;;;;5075817;28;20878;-66
2024/02/06 13:52:39;;;;;;;2.20;1.30;;;;;;;;;;5075501;28;20451;-66
2024/02/06 13:55:07;;;;;;;4.90;1.40;;;;;;;;;;5075826;28;20814;-66
2024/02/06 13:57:34;;;;;;;3.10;1.60;;;;;;;;;;5075850;28;20542;-66
2024/02/06 14:00:01;;;;;;;4.23;1.90;;;;;;;;;;5075775;28;20439;-66
2024/02/06 14:02:27;;;;;;;3.03;1.57;;;;;;;;;;5075777;28;20444;-67
2024/02/06 14:04:54;;;;;;;2.77;1.60;;;;;;;;;;5075434;28;20470;-67
2024/02/06 14:07:23;;;;;;;5.60;1.73;;;;;;;;;;5075397;28;20479;-67
2024/02/06 14:09:51;;;;;;;3.40;1.57;;;;;;;;;;5075787;28;20444;-67
2024/02/06 14:12:20;;;;;;;1.73;1.30;;;;;;;;;;5075545;28;20538;-67
2024/02/06 14:14:47;;;;;;;2.53;1.67;;;;;;;;;;5075835;28;20465;-67
2024/02/06 14:17:14;;;;;;;1.93;1.37;;;;;;;;;;5075375;28;20550;-67
2024/02/06 14:19:40;;;;;;;1.63;1.37;;;;;;;;;;5075303;28;20534;-68
2024/02/06 14:22:07;;;;;;;1.83;1.60;;;;;;;;;;5075505;28;20527;-67
2024/02/06 14:24:34;;;;;;;3.43;1.40;;;;;;;;;;5075235;28;21163;-67
2024/02/06 14:27:03;;;;;;;3.33;1.43;;;;;;;;;;5075066;28;20550;-67
2024/02/06 14:29:29;;;;;;;3.53;1.50;;;;;;;;;;5074095;28;20538;-67
2024/02/06 14:31:56;;;;;;;3.70;1.07;;;;;;;;;;5075042;28;20522;-67
2024/02/06 14:34:23;;;;;;;2.30;1.07;;;;;;;;;;5075009;28;20443;-67
2024/02/06 14:36:50;;;;;;;3.80;1.40;;;;;;;;;;5075146;28;20534;-68
2024/02/06 14:39:17;;;;;;;2.50;1.60;;;;;;;;;;5075146;28;21010;-67
2024/02/06 14:41:44;;;;;;;1.47;1.17;;;;;;;;;;5075102;28;20538;-67
2024/02/06 14:44:12;;;;;;;2.60;1.77;;;;;;;;;;5074852;28;20439;-67